createdAt,value
2019-06-07T00:01:52.809Z,11.68
2019-06-07T00:03:56.979Z,11.33
2019-06-07T00:06:02.834Z,10.98
2019-06-07T00:08:11.282Z,11.50
2019-06-07T00:10:31.236Z,11.55
2019-06-07T00:12:21.615Z,10.13
2019-06-07T00:14:25.252Z,10.55
2019-06-07T00:16:29.428Z,10.53
2019-06-07T00:18:33.576Z,11.35
2019-06-07T00:20:37.773Z,11.22
2019-06-07T00:22:41.951Z,11.12
2019-06-07T00:24:46.112Z,11.10
2019-06-07T00:26:58.274Z,11.08
2019-06-07T00:28:57.210Z,11.85
2019-06-07T00:31:01.467Z,11.20
2019-06-07T00:33:06.821Z,11.35
2019-06-07T00:35:17.118Z,12.05
2019-06-07T00:37:25.177Z,11.48
2019-06-07T00:39:26.612Z,12.55
2019-06-07T00:41:30.791Z,12.07
2019-06-07T00:43:34.971Z,11.53
2019-06-07T00:45:39.130Z,12.28
2019-06-07T00:47:43.423Z,13.30
2019-06-07T00:49:47.672Z,12.65
2019-06-07T00:51:53.601Z,12.73
2019-06-07T00:53:57.864Z,12.10
2019-06-07T00:56:02.020Z,12.33
2019-06-07T00:58:06.303Z,12.75
2019-06-07T01:00:14.764Z,12.60
2019-06-07T01:02:21.464Z,12.65
2019-06-07T01:04:26.014Z,12.50
2019-06-07T01:06:30.485Z,12.30
2019-06-07T01:08:34.779Z,12.40
2019-06-07T01:10:52.817Z,12.30
2019-06-07T01:12:44.860Z,11.55
2019-06-07T01:14:49.048Z,13.05
2019-06-07T01:16:59.454Z,12.90
2019-06-07T01:18:59.132Z,12.00
2019-06-07T01:21:03.291Z,12.85
2019-06-07T01:23:52.029Z,12.60
2019-06-07T01:25:13.550Z,13.15
2019-06-07T01:27:19.022Z,13.15
2019-06-07T01:29:24.972Z,13.83
2019-06-07T01:31:31.507Z,12.98
2019-06-07T01:33:50.465Z,12.45
2019-06-07T01:35:41.508Z,12.23
2019-06-07T01:37:45.733Z,11.30
2019-06-07T01:39:49.912Z,11.65
2019-06-07T01:41:54.160Z,11.73
2019-06-07T01:43:59.018Z,12.05
2019-06-07T01:46:03.271Z,11.97
2019-06-07T01:48:07.441Z,12.03
2019-06-07T01:50:13.034Z,12.43
2019-06-07T01:52:19.405Z,12.45
2019-06-07T01:56:29.943Z,12.70
2019-06-07T01:58:34.240Z,12.58
2019-06-07T02:00:38.422Z,12.58
2019-06-07T02:02:42.685Z,13.20
2019-06-07T02:04:48.181Z,12.03
2019-06-07T02:06:52.616Z,12.30
2019-06-07T02:08:56.783Z,12.10
2019-06-07T02:11:00.955Z,12.43
2019-06-07T02:13:05.319Z,12.47
2019-06-07T02:15:09.890Z,12.55
2019-06-07T02:17:14.133Z,11.93
2019-06-07T02:19:19.428Z,12.23
2019-06-07T02:21:26.006Z,12.37
2019-06-07T02:23:31.652Z,11.97
2019-06-07T02:25:43.776Z,11.80
2019-06-07T02:27:41.783Z,11.85
2019-06-07T02:29:45.949Z,12.53
2019-06-07T02:31:50.140Z,12.33
2019-06-07T02:33:54.280Z,11.73
2019-06-07T02:35:58.519Z,12.13
2019-06-07T02:38:02.745Z,11.83
2019-06-07T02:40:07.352Z,12.78
2019-06-07T02:42:11.582Z,12.45
2019-06-07T02:44:15.746Z,12.85
2019-06-07T02:46:32.552Z,13.58
2019-06-07T02:48:35.322Z,12.78
2019-06-07T02:50:38.812Z,13.50
2019-06-07T02:52:42.362Z,13.28
2019-06-07T02:54:46.750Z,13.30
2019-06-07T02:56:58.146Z,12.53
2019-06-07T02:58:56.882Z,12.35
2019-06-07T03:01:08.364Z,11.90
2019-06-07T03:03:07.212Z,12.60
2019-06-07T03:05:12.829Z,12.18
2019-06-07T03:07:18.571Z,11.35
2019-06-07T03:09:22.719Z,11.20
2019-06-07T03:11:31.185Z,11.80
2019-06-07T03:13:40.787Z,12.03
2019-06-07T03:15:50.029Z,12.00
2019-06-07T03:18:03.456Z,11.50
2019-06-07T03:20:09.683Z,11.73
2019-06-07T03:22:13.865Z,11.63
2019-06-07T03:24:18.055Z,12.35
2019-06-07T03:26:23.736Z,11.45
2019-06-07T03:28:30.178Z,11.95
2019-06-07T03:30:46.948Z,12.50
2019-06-07T03:32:47.552Z,12.18
2019-06-07T03:34:47.281Z,12.07
2019-06-07T03:36:50.925Z,12.35
2019-06-07T03:38:54.635Z,13.05
2019-06-07T03:40:58.327Z,13.03
2019-06-07T03:43:01.943Z,12.95
2019-06-07T03:45:06.242Z,12.73
2019-06-07T03:47:09.862Z,17.35
2019-06-07T03:49:13.650Z,17.55
2019-06-07T03:51:26.922Z,18.90
2019-06-07T03:53:22.688Z,17.35
2019-06-07T03:55:27.808Z,18.42
2019-06-07T03:58:24.791Z,16.90
2019-06-07T03:59:40.862Z,16.67
2019-06-07T04:01:42.254Z,17.02
2019-06-07T04:03:51.414Z,19.75
2019-06-07T04:05:51.587Z,18.65
2019-06-07T04:07:55.301Z,18.90
2019-06-07T04:09:58.915Z,18.98
2019-06-07T04:12:02.554Z,20.62
2019-06-07T04:14:06.195Z,19.90
2019-06-07T04:16:09.807Z,19.32
2019-06-07T04:18:13.454Z,20.85
2019-06-07T04:20:17.165Z,19.05
2019-06-07T04:22:20.825Z,19.98
2019-06-07T04:24:24.470Z,19.42
2019-06-07T04:26:31.444Z,18.62
2019-06-07T04:29:24.873Z,18.25
2019-06-07T04:30:41.978Z,17.67
2019-06-07T04:32:45.588Z,19.65
2019-06-07T04:34:49.230Z,19.67
2019-06-07T04:36:59.107Z,20.37
2019-06-07T04:39:00.119Z,19.05
2019-06-07T04:41:03.745Z,21.75
2019-06-07T04:43:07.474Z,21.17
2019-06-07T04:45:32.670Z,22.02
2019-06-07T04:47:18.183Z,24.20
2019-06-07T04:49:23.152Z,23.92
2019-06-07T04:51:26.780Z,23.70
2019-06-07T04:53:34.446Z,23.00
2019-06-07T04:55:38.653Z,23.02
2019-06-07T04:57:43.195Z,22.25
2019-06-07T05:00:11.912Z,22.10
2019-06-07T05:01:52.140Z,22.77
2019-06-07T05:03:55.872Z,20.90
2019-06-07T05:05:59.628Z,21.93
2019-06-07T05:08:07.531Z,21.50
2019-06-07T05:10:08.975Z,21.05
2019-06-07T05:12:12.607Z,21.02
2019-06-07T05:14:17.522Z,21.05
2019-06-07T05:16:21.251Z,21.42
2019-06-07T05:18:24.878Z,19.48
2019-06-07T05:20:29.423Z,18.98
2019-06-07T05:22:34.884Z,19.00
2019-06-07T05:24:41.513Z,19.32
2019-06-07T05:26:44.421Z,17.62
2019-06-07T05:28:48.133Z,18.55
2019-06-07T05:31:03.885Z,17.02
2019-06-07T05:32:57.220Z,15.50
2019-06-07T05:35:02.430Z,15.45
2019-06-07T05:37:12.042Z,15.95
2019-06-07T05:39:11.509Z,14.03
2019-06-07T05:41:15.151Z,11.22
2019-06-07T05:43:23.124Z,10.28
2019-06-07T05:45:32.508Z,8.95
2019-06-07T05:47:40.932Z,8.90
2019-06-07T05:49:47.147Z,9.55
2019-06-07T05:51:51.077Z,9.40
2019-06-07T05:53:54.684Z,8.90
2019-06-07T05:55:58.412Z,9.08
2019-06-07T05:58:02.148Z,8.25
2019-06-07T06:00:05.831Z,8.55
2019-06-07T06:02:22.196Z,9.45
2019-06-07T06:04:14.898Z,8.98
2019-06-07T06:06:19.346Z,9.08
2019-06-07T06:08:23.290Z,9.23
2019-06-07T06:10:26.984Z,8.70
2019-06-07T06:12:35.250Z,8.58
2019-06-07T06:14:39.622Z,8.40
2019-06-07T06:16:45.367Z,7.70
2019-06-07T06:18:47.703Z,7.60
2019-06-07T06:21:15.290Z,7.78
2019-06-07T06:23:01.090Z,7.30
2019-06-07T06:27:41.465Z,7.28
2019-06-07T06:29:16.146Z,6.50
2019-06-07T06:31:19.807Z,6.20
2019-06-07T06:33:33.901Z,5.85
2019-06-07T06:35:28.960Z,4.28
2019-06-07T06:37:32.685Z,4.45
2019-06-07T06:39:37.133Z,4.15
2019-06-07T06:41:52.235Z,4.30
2019-06-07T06:43:50.333Z,3.80
2019-06-07T06:45:51.712Z,4.53
2019-06-07T06:47:55.359Z,4.22
2019-06-07T06:50:00.833Z,3.83
2019-06-07T06:52:04.670Z,3.72
2019-06-07T06:54:08.298Z,3.60
2019-06-07T06:56:11.952Z,3.17
2019-06-07T06:58:16.166Z,3.52
2019-06-07T07:00:43.096Z,3.62
2019-06-07T07:02:33.148Z,3.65
2019-06-07T07:04:37.400Z,3.00
2019-06-07T07:06:42.741Z,3.10
2019-06-07T07:08:48.239Z,3.47
2019-06-07T07:10:55.096Z,3.40
2019-06-07T07:12:59.215Z,3.15
2019-06-07T07:15:06.267Z,2.87
2019-06-07T07:17:10.708Z,3.67
2019-06-07T07:19:15.056Z,3.02
2019-06-07T07:21:19.267Z,3.02
2019-06-07T07:23:25.221Z,2.87
2019-06-07T07:25:29.427Z,3.05
2019-06-07T07:27:33.678Z,3.08
2019-06-07T07:29:37.857Z,3.22
2019-06-07T07:31:43.006Z,3.00
2019-06-07T07:36:18.511Z,2.55
2019-06-07T07:37:59.842Z,3.15
2019-06-07T07:40:48.071Z,3.40
2019-06-07T07:42:20.914Z,2.70
2019-06-07T07:44:16.098Z,3.40
2019-06-07T07:46:29.029Z,3.10
2019-06-07T07:48:25.165Z,2.50
2019-06-07T07:50:28.859Z,2.72
2019-06-07T07:52:32.521Z,2.77
2019-06-07T07:54:36.200Z,3.25
2019-06-07T07:56:39.872Z,2.98
2019-06-07T07:58:46.199Z,2.85
2019-06-07T08:00:52.858Z,3.25
2019-06-07T08:02:58.677Z,3.33
2019-06-07T08:05:21.863Z,3.25
2019-06-07T08:07:04.969Z,3.50
2019-06-07T08:09:08.666Z,3.40
2019-06-07T08:11:13.029Z,3.55
2019-06-07T08:13:26.016Z,3.50
2019-06-07T08:15:21.988Z,3.75
2019-06-07T08:17:25.677Z,3.70
2019-06-07T08:19:29.254Z,3.92
2019-06-07T08:21:32.906Z,3.70
2019-06-07T08:23:36.488Z,3.50
2019-06-07T08:25:40.037Z,3.75
2019-06-07T08:27:43.671Z,3.60
2019-06-07T08:30:03.629Z,3.95
2019-06-07T08:31:55.466Z,3.20
2019-06-07T08:34:00.172Z,3.02
2019-06-07T08:36:11.872Z,3.00
2019-06-07T08:38:24.792Z,2.90
2019-06-07T08:40:14.445Z,3.17
2019-06-07T08:42:22.006Z,2.85
2019-06-07T08:44:25.579Z,3.02
2019-06-07T08:46:28.695Z,3.52
2019-06-07T08:48:32.379Z,2.95
2019-06-07T08:50:35.955Z,3.33
2019-06-07T08:52:39.674Z,3.25
2019-06-07T08:54:43.357Z,3.47
2019-06-07T08:56:47.022Z,3.40
2019-06-07T08:58:54.939Z,3.30
2019-06-07T09:00:59.389Z,3.25
2019-06-07T09:03:05.023Z,2.40
2019-06-07T09:05:12.126Z,2.80
2019-06-07T09:07:19.673Z,2.75
2019-06-07T09:09:17.473Z,2.55
2019-06-07T09:11:21.085Z,2.67
2019-06-07T09:13:24.867Z,2.17
2019-06-07T09:15:28.513Z,2.30
2019-06-07T09:17:32.322Z,2.60
2019-06-07T09:19:35.954Z,2.62
2019-06-07T09:21:39.618Z,2.70
2019-06-07T09:23:43.271Z,2.60
2019-06-07T09:25:57.182Z,3.17
2019-06-07T09:27:52.274Z,3.02
2019-06-07T09:30:00.751Z,2.60
2019-06-07T09:32:05.790Z,2.15
2019-06-07T09:34:11.831Z,2.62
2019-06-07T09:36:13.385Z,2.55
2019-06-07T09:38:25.525Z,2.70
2019-06-07T09:40:27.714Z,2.58
2019-06-07T09:42:30.746Z,2.95
2019-06-07T09:44:34.335Z,3.10
2019-06-07T09:46:38.098Z,2.80
2019-06-07T09:49:14.255Z,2.45
2019-06-07T09:50:47.091Z,3.20
2019-06-07T09:52:58.473Z,3.08
2019-06-07T09:55:12.453Z,3.15
2019-06-07T09:57:04.571Z,3.40
2019-06-07T09:59:12.152Z,3.10
2019-06-07T10:01:13.758Z,3.70
2019-06-07T10:03:21.970Z,3.45
2019-06-07T10:05:22.763Z,3.60
2019-06-07T10:07:31.833Z,3.72
2019-06-07T10:11:37.396Z,3.30
2019-06-07T10:13:41.029Z,3.20
2019-06-07T10:15:44.603Z,3.50
2019-06-07T10:17:48.184Z,3.30
2019-06-07T10:19:51.772Z,2.83
2019-06-07T10:21:55.459Z,2.75
2019-06-07T10:23:59.265Z,2.50
2019-06-07T10:26:04.068Z,3.00
2019-06-07T10:28:08.252Z,2.50
2019-06-07T10:30:12.080Z,2.60
2019-06-07T10:32:15.658Z,2.58
2019-06-07T10:34:19.327Z,2.70
2019-06-07T10:36:22.985Z,2.70
2019-06-07T10:38:26.572Z,2.40
2019-06-07T10:40:30.212Z,2.52
2019-06-07T10:42:33.804Z,2.72
2019-06-07T10:44:37.387Z,2.70
2019-06-07T10:46:41.117Z,2.92
2019-06-07T10:48:44.672Z,2.60
2019-06-07T10:50:48.262Z,2.90
2019-06-07T10:52:51.874Z,2.87
2019-06-07T10:54:55.458Z,3.83
2019-06-07T10:56:59.060Z,2.40
2019-06-07T10:59:03.141Z,2.37
2019-06-07T11:01:07.784Z,2.50
2019-06-07T11:03:11.862Z,2.92
2019-06-07T11:05:15.922Z,3.37
2019-06-07T11:07:19.587Z,2.75
2019-06-07T11:09:23.261Z,3.30
2019-06-07T11:11:26.825Z,3.30
2019-06-07T11:13:30.482Z,2.83
2019-06-07T11:15:34.254Z,2.58
2019-06-07T11:17:37.910Z,2.92
2019-06-07T11:19:41.831Z,3.20
2019-06-07T11:21:45.410Z,3.20
2019-06-07T11:23:49.535Z,2.95
2019-06-07T11:25:53.113Z,2.80
2019-06-07T11:27:57.605Z,2.70
2019-06-07T11:30:01.287Z,2.77
2019-06-07T11:32:06.256Z,2.90
2019-06-07T11:34:10.458Z,2.55
2019-06-07T11:36:15.345Z,2.30
2019-06-07T11:38:19.214Z,2.37
2019-06-07T11:40:33.979Z,3.05
2019-06-07T11:42:28.500Z,3.58
2019-06-07T11:44:32.088Z,3.15
2019-06-07T11:46:35.714Z,2.60
2019-06-07T11:48:39.275Z,2.62
2019-06-07T11:50:43.006Z,2.65
2019-06-07T11:52:46.759Z,2.62
2019-06-07T11:54:50.401Z,3.52
2019-06-07T11:56:54.171Z,2.90
2019-06-07T11:58:57.862Z,2.37
2019-06-07T12:01:07.437Z,2.60
2019-06-07T12:03:11.542Z,2.50
2019-06-07T12:05:18.500Z,2.60
2019-06-07T12:07:20.752Z,2.87
2019-06-07T12:09:27.846Z,2.55
2019-06-07T12:11:29.708Z,2.50
2019-06-07T12:13:33.401Z,2.70
2019-06-07T12:15:37.131Z,2.65
2019-06-07T12:17:40.739Z,2.67
2019-06-07T12:19:44.342Z,2.37
2019-06-07T12:21:48.025Z,2.65
2019-06-07T12:23:51.663Z,2.70
2019-06-07T12:25:55.299Z,3.10
2019-06-07T12:27:58.948Z,3.30
2019-06-07T12:30:09.870Z,2.72
2019-06-07T12:32:07.916Z,2.40
2019-06-07T12:34:11.576Z,2.85
2019-06-07T12:36:15.906Z,2.70
2019-06-07T12:38:21.083Z,3.08
2019-06-07T12:40:30.584Z,2.77
2019-06-07T12:42:30.563Z,3.10
2019-06-07T12:44:34.218Z,3.20
2019-06-07T12:46:41.406Z,2.70
2019-06-07T12:48:44.976Z,2.70
2019-06-07T12:50:48.592Z,3.20
2019-06-07T12:52:52.188Z,3.12
2019-06-07T12:54:55.797Z,3.15
2019-06-07T12:57:00.080Z,3.10
2019-06-07T12:59:04.537Z,2.70
2019-06-07T13:01:08.134Z,3.10
2019-06-07T13:03:11.695Z,2.80
2019-06-07T13:05:15.517Z,3.10
2019-06-07T13:07:20.069Z,2.80
2019-06-07T13:09:24.426Z,2.98
2019-06-07T13:11:31.545Z,3.10
2019-06-07T13:13:34.577Z,2.80
2019-06-07T13:15:38.801Z,3.30
2019-06-07T13:17:42.999Z,2.95
2019-06-07T13:19:47.198Z,3.08
2019-06-07T13:21:53.671Z,2.70
2019-06-07T13:23:57.867Z,3.12
2019-06-07T13:26:02.133Z,3.25
2019-06-07T13:28:06.567Z,3.42
2019-06-07T13:30:12.088Z,3.02
2019-06-07T13:32:17.433Z,3.30
2019-06-07T13:34:22.402Z,3.52
2019-06-07T13:36:28.558Z,3.80
2019-06-07T13:38:32.811Z,3.50
2019-06-07T13:40:37.005Z,3.00
2019-06-07T13:42:41.243Z,3.80
2019-06-07T13:44:45.455Z,3.50
2019-06-07T13:46:51.734Z,3.45
2019-06-07T13:48:55.887Z,3.65
2019-06-07T13:51:00.114Z,3.58
2019-06-07T13:53:04.283Z,3.90
2019-06-07T13:55:08.953Z,3.67
2019-06-07T13:57:15.107Z,3.77
2019-06-07T13:59:20.458Z,4.42
2019-06-07T14:01:24.759Z,4.25
2019-06-07T14:03:33.352Z,4.75
2019-06-07T14:05:34.854Z,4.30
2019-06-07T14:07:39.005Z,3.90
2019-06-07T14:09:43.168Z,4.35
2019-06-07T14:11:50.927Z,4.20
2019-06-07T14:13:53.852Z,4.05
2019-06-07T14:15:59.870Z,4.92
2019-06-07T14:18:04.085Z,4.20
2019-06-07T14:20:10.483Z,3.77
2019-06-07T14:22:15.139Z,4.03
2019-06-07T14:24:19.336Z,3.45
2019-06-07T14:26:23.530Z,3.60
2019-06-07T14:28:30.861Z,3.58
2019-06-07T14:30:35.473Z,3.70
2019-06-07T14:32:40.211Z,3.90
2019-06-07T14:34:45.540Z,3.65
2019-06-07T14:36:49.706Z,3.98
2019-06-07T14:38:53.885Z,3.33
2019-06-07T14:40:58.392Z,3.50
2019-06-07T14:43:02.762Z,3.55
2019-06-07T14:45:07.568Z,3.50
2019-06-07T14:47:14.757Z,3.42
2019-06-07T14:49:18.983Z,3.60
2019-06-07T14:51:24.183Z,3.67
2019-06-07T14:53:28.781Z,3.85
2019-06-07T14:55:33.125Z,4.15
2019-06-07T14:57:37.362Z,4.00
2019-06-07T14:59:41.681Z,3.70
2019-06-07T15:01:45.868Z,4.00
2019-06-07T15:03:50.044Z,4.00
2019-06-07T15:05:54.219Z,4.10
2019-06-07T15:07:58.427Z,4.60
2019-06-07T15:10:02.964Z,4.67
2019-06-07T15:12:07.159Z,4.35
2019-06-07T15:14:12.506Z,4.40
2019-06-07T15:16:17.712Z,4.70
2019-06-07T15:18:21.896Z,4.17
2019-06-07T15:20:26.071Z,4.67
2019-06-07T15:22:32.096Z,4.55
2019-06-07T15:24:40.630Z,4.83
2019-06-07T15:26:44.934Z,5.40
2019-06-07T15:28:49.222Z,5.72
2019-06-07T15:30:53.459Z,5.85
2019-06-07T15:32:59.771Z,5.37
2019-06-07T15:35:03.557Z,5.25
2019-06-07T15:37:07.785Z,5.42
2019-06-07T15:39:11.989Z,5.30
2019-06-07T15:41:16.270Z,5.20
2019-06-07T15:43:20.526Z,5.85
2019-06-07T15:45:24.776Z,5.47
2019-06-07T15:47:29.576Z,5.92
2019-06-07T15:49:38.124Z,5.87
2019-06-07T15:51:42.540Z,6.30
2019-06-07T15:53:46.705Z,6.12
2019-06-07T15:55:51.091Z,6.10
2019-06-07T15:57:55.466Z,6.20
2019-06-07T15:59:59.626Z,6.62
2019-06-07T16:02:04.051Z,6.12
2019-06-07T16:04:08.262Z,6.28
2019-06-07T16:06:12.472Z,6.15
2019-06-07T16:08:16.663Z,6.72
2019-06-07T16:10:20.965Z,6.60
2019-06-07T16:12:25.156Z,8.35
2019-06-07T16:14:29.356Z,8.30
2019-06-07T16:16:34.832Z,7.20
2019-06-07T16:18:39.788Z,7.55
2019-06-07T16:20:44.479Z,8.55
2019-06-07T16:22:48.729Z,6.85
2019-06-07T16:24:52.983Z,7.85
2019-06-07T16:26:57.179Z,6.92
2019-06-07T16:29:01.451Z,6.70
2019-06-07T16:31:05.747Z,7.30
2019-06-07T16:33:10.032Z,7.12
2019-06-07T16:35:14.824Z,7.47
2019-06-07T16:37:19.166Z,6.92
2019-06-07T16:39:23.327Z,7.00
2019-06-07T16:41:27.527Z,6.62
2019-06-07T16:43:31.752Z,7.10
2019-06-07T16:45:36.482Z,6.90
2019-06-07T16:47:43.766Z,7.12
2019-06-07T16:49:50.152Z,7.60
2019-06-07T16:51:54.415Z,7.53
2019-06-07T16:54:00.257Z,7.50
2019-06-07T16:56:06.136Z,7.72
2019-06-07T16:58:10.387Z,8.08
2019-06-07T17:00:16.041Z,7.80
2019-06-07T17:02:24.074Z,8.15
2019-06-07T17:04:28.288Z,7.15
2019-06-07T17:06:32.538Z,7.85
2019-06-07T17:08:37.923Z,7.95
2019-06-07T17:10:44.244Z,8.33
2019-06-07T17:12:50.667Z,8.48
2019-06-07T17:14:55.136Z,8.03
2019-06-07T17:16:59.291Z,7.55
2019-06-07T17:19:03.475Z,8.15
2019-06-07T17:21:07.664Z,7.95
2019-06-07T17:23:11.831Z,8.18
2019-06-07T17:25:17.654Z,8.23
2019-06-07T17:27:21.826Z,8.30
2019-06-07T17:29:26.444Z,8.48
2019-06-07T17:31:30.618Z,8.63
2019-06-07T17:33:34.833Z,8.18
2019-06-07T17:35:42.146Z,8.20
2019-06-07T17:37:49.142Z,7.47
2019-06-07T17:39:52.788Z,7.37
2019-06-07T17:42:02.154Z,8.08
2019-06-07T17:44:02.924Z,8.50
2019-06-07T17:46:07.351Z,7.78
2019-06-07T17:48:11.558Z,7.70
2019-06-07T17:50:17.090Z,7.40
2019-06-07T17:52:21.273Z,8.00
2019-06-07T17:54:25.447Z,7.83
2019-06-07T17:56:29.710Z,7.78
2019-06-07T17:58:36.548Z,7.45
2019-06-07T18:00:50.848Z,7.65
2019-06-07T18:02:55.761Z,8.10
2019-06-07T18:05:00.334Z,7.22
2019-06-07T18:07:04.518Z,8.00
2019-06-07T18:09:13.972Z,7.53
2019-06-07T18:11:17.027Z,7.83
2019-06-07T18:13:20.843Z,7.37
2019-06-07T18:15:30.142Z,7.47
2019-06-07T18:17:34.946Z,8.30
2019-06-07T18:19:38.950Z,8.38
2019-06-07T18:21:47.119Z,8.30
2019-06-07T18:23:54.818Z,8.03
2019-06-07T18:26:00.171Z,7.80
2019-06-07T18:28:04.301Z,8.75
2019-06-07T18:30:11.651Z,8.13
2019-06-07T18:32:14.263Z,8.10
2019-06-07T18:34:19.019Z,8.90
2019-06-07T18:36:22.716Z,8.88
2019-06-07T18:38:26.523Z,8.48
2019-06-07T18:40:30.155Z,10.50
2019-06-07T18:42:33.801Z,9.43
2019-06-07T18:44:37.443Z,9.50
2019-06-07T18:46:41.256Z,10.13
2019-06-07T18:48:46.459Z,9.38
2019-06-07T18:50:50.722Z,9.60
2019-06-07T18:52:54.933Z,9.38
2019-06-07T18:54:59.678Z,8.75
2019-06-07T18:57:03.442Z,9.68
2019-06-07T18:59:07.127Z,9.15
2019-06-07T19:01:10.948Z,8.90
2019-06-07T19:03:14.597Z,9.08
2019-06-07T19:05:18.401Z,9.70
2019-06-07T19:07:23.824Z,9.33
2019-06-07T19:09:27.552Z,9.08
2019-06-07T19:11:31.198Z,8.73
2019-06-07T19:13:34.840Z,8.75
2019-06-07T19:15:38.590Z,8.65
2019-06-07T19:17:42.220Z,8.70
2019-06-07T19:19:45.923Z,8.40
2019-06-07T19:21:49.920Z,8.75
2019-06-07T19:23:53.865Z,8.40
2019-06-07T19:25:58.568Z,8.35
2019-06-07T19:28:02.483Z,11.55
2019-06-07T19:30:07.339Z,10.03
2019-06-07T19:32:11.061Z,10.08
2019-06-07T19:34:14.797Z,8.80
2019-06-07T19:36:18.440Z,8.43
2019-06-07T19:38:22.235Z,8.85
2019-06-07T19:40:25.900Z,17.40
2019-06-07T19:42:29.537Z,9.90
2019-06-07T19:44:35.425Z,9.40
2019-06-07T19:46:39.193Z,9.28
2019-06-07T19:48:44.723Z,9.23
2019-06-07T19:50:48.799Z,8.63
2019-06-07T19:52:55.054Z,8.65
2019-06-07T19:54:59.972Z,9.28
2019-06-07T19:57:04.310Z,12.33
2019-06-07T19:59:08.040Z,12.35
2019-06-07T20:01:11.797Z,14.47
2019-06-07T20:03:15.438Z,11.95
2019-06-07T20:05:19.173Z,12.63
2019-06-07T20:07:22.887Z,13.18
2019-06-07T20:09:26.525Z,12.85
2019-06-07T20:11:30.221Z,6.28
2019-06-07T20:13:34.014Z,5.28
2019-06-07T20:15:37.779Z,5.20
2019-06-07T20:17:41.491Z,5.75
2019-06-07T20:19:45.210Z,5.33
2019-06-07T20:21:52.422Z,7.87
2019-06-07T20:23:56.723Z,4.78
2019-06-07T20:26:00.526Z,6.87
2019-06-07T20:28:05.554Z,5.15
2019-06-07T20:30:09.968Z,6.05
2019-06-07T20:32:13.844Z,4.80
2019-06-07T20:34:17.714Z,3.70
2019-06-07T20:36:21.698Z,7.03
2019-06-07T20:38:25.626Z,2.30
2019-06-07T20:40:29.331Z,2.50
2019-06-07T20:42:33.071Z,2.80
2019-06-07T20:44:36.691Z,2.50
2019-06-07T20:46:42.222Z,3.10
2019-06-07T20:48:45.988Z,2.70
2019-06-07T20:50:49.611Z,2.10
2019-06-07T20:52:53.355Z,2.20
2019-06-07T20:54:58.354Z,2.92
2019-06-07T20:57:02.677Z,3.72
2019-06-07T20:59:06.857Z,3.00
2019-06-07T21:01:13.636Z,1.92
2019-06-07T21:03:17.276Z,2.12
2019-06-07T21:05:21.000Z,2.00
2019-06-07T21:07:24.738Z,1.62
2019-06-07T21:09:28.439Z,2.35
2019-06-07T21:11:32.186Z,2.00
2019-06-07T21:13:35.907Z,1.87
2019-06-07T21:15:48.446Z,1.65
2019-06-07T21:17:45.134Z,2.00
2019-06-07T21:19:48.869Z,1.95
2019-06-07T21:21:52.660Z,1.67
2019-06-07T21:23:56.451Z,1.75
2019-06-07T21:26:00.740Z,1.50
2019-06-07T21:28:05.203Z,1.92
2019-06-07T21:30:09.518Z,2.15
2019-06-07T21:32:13.476Z,1.87
2019-06-07T21:34:17.264Z,2.15
2019-06-07T21:36:20.958Z,1.30
2019-06-07T21:38:24.669Z,1.70
2019-06-07T21:40:28.454Z,1.40
2019-06-07T21:42:32.171Z,1.50
2019-06-07T21:44:35.942Z,1.40
2019-06-07T21:46:39.654Z,1.30
2019-06-07T21:48:43.305Z,1.50
2019-06-07T21:50:46.947Z,1.27
2019-06-07T21:52:50.592Z,1.50
2019-06-07T21:54:54.444Z,1.20
2019-06-07T21:56:58.254Z,1.50
2019-06-07T21:59:04.988Z,1.25
2019-06-07T22:01:12.073Z,1.00
2019-06-07T22:03:15.891Z,1.30
2019-06-07T22:05:19.652Z,1.80
2019-06-07T22:07:26.234Z,2.00
2019-06-07T22:09:29.913Z,4.25
2019-06-07T22:11:39.494Z,1.37
2019-06-07T22:13:43.146Z,1.62
2019-06-07T22:15:47.179Z,10.78
2019-06-07T22:17:50.899Z,2.12
2019-06-07T22:19:54.553Z,2.00
2019-06-07T22:22:02.479Z,1.72
2019-06-07T22:24:04.779Z,1.77
2019-06-07T22:26:11.271Z,1.60
2019-06-07T22:28:15.067Z,1.72
2019-06-07T22:30:19.005Z,1.40
2019-06-07T22:32:22.764Z,1.37
2019-06-07T22:34:26.554Z,1.50
2019-06-07T22:36:30.197Z,1.50
2019-06-07T22:38:33.813Z,1.30
2019-06-07T22:40:37.575Z,1.50
2019-06-07T22:42:41.207Z,1.42
2019-06-07T22:44:44.915Z,1.50
2019-06-07T22:46:48.652Z,1.47
2019-06-07T22:48:52.779Z,1.62
2019-06-07T22:50:58.361Z,1.45
2019-06-07T22:53:21.144Z,1.55
2019-06-07T22:55:24.877Z,1.60
2019-06-07T22:57:30.201Z,1.40
2019-06-07T22:59:33.908Z,1.60
2019-06-07T23:01:37.607Z,1.80
2019-06-07T23:03:41.347Z,1.50
2019-06-07T23:05:45.251Z,1.70
2019-06-07T23:07:48.899Z,1.47
2019-06-07T23:09:52.521Z,1.80
2019-06-07T23:11:56.217Z,1.60
2019-06-07T23:13:59.926Z,1.80
2019-06-07T23:16:03.649Z,2.00
2019-06-07T23:18:07.306Z,1.70
2019-06-07T23:20:11.834Z,1.77
2019-06-07T23:22:17.916Z,1.40
2019-06-07T23:24:21.555Z,1.75
2019-06-07T23:26:25.402Z,1.75
2019-06-07T23:28:29.137Z,1.95
2019-06-07T23:30:32.786Z,2.10
2019-06-07T23:32:36.403Z,1.80
2019-06-07T23:34:40.159Z,2.20
2019-06-07T23:36:46.581Z,1.90
2019-06-07T23:38:50.197Z,1.77
2019-06-07T23:40:54.221Z,1.77
2019-06-07T23:42:57.843Z,2.10
2019-06-07T23:45:01.589Z,2.05
2019-06-07T23:47:11.220Z,1.75
2019-06-07T23:49:11.925Z,1.77
2019-06-07T23:51:17.623Z,1.85
2019-06-07T23:53:22.162Z,2.00
2019-06-07T23:55:26.150Z,2.25
2019-06-07T23:57:29.866Z,2.30
2019-06-07T23:59:33.475Z,2.27
